KOSC/OSC METAR and TAF weather

Enter ICAO airport designator
Station Type Date Time Source
KOSC METAR 2020/12/05 05:35 UTC NOAA

KOSC 050535Z AUTO 32011KT 10SM BKN020 BKN029 OVC035 00/M03 A3000 RMK AO2 T10031035


Station Type Date Time Source
KOSC Decoded METAR 2020/12/05 05:35 UTC NOAA

Oscoda, Oscoda-Wurtsmith Airport, MI, United States (KOSC) 44-27N 083-22W
Dec 05, 2020 - 12:35 AM EST / 2020.12.05 0535 UTC
Wind: from the NW (320 degrees) at 13 MPH (11 KT):0
Visibility: 10 mile(s):0
Sky conditions: overcast
Temperature: 31.5 F (-0.3 C)
Windchill: 21 F (-6 C):1
Dew Point: 25.7 F (-3.5 C)
Relative Humidity: 78%
Pressure (altimeter): 30 in. Hg (1015 hPa)
ob: KOSC 050535Z AUTO 32011KT 10SM BKN020 BKN029 OVC035 00/M03 A3000 RMK AO2 T10031035
cycle: 5

Station Type Date Time Source
KOSC TAF UTC NOAA

Error!

Example: see airport list